Dorchester, New Hampshire
Current Conditions -  °F | °C
As of 6:15 AM on Monday 20 Oct 2014 (Local Time) from K1P1 Reporting Station
Clear Clear  
Wind Chill: 31°   Ceiling: Unl
Heat Index: 37°   Visibility: 10mi
Dew Point: 30°   Wind: 8mph
Humidity: 76%   Direction: 280°W
Pressure: 29.96"   Gusts: NA
Location:  43.7922°N, 71.8971°W
Report Text: K1P1 201015Z AUTO 28007KT 10SM CLR 03/M01 A2996 RMK AO2 T00261012
Loading
Personal Weather Stations






























Interactive Weather Map New forecast layout! Learn more

10-Day Weather Forecast

Advertisements
Track Severe Weather on mobile